sensor_id;sensor_type;location;lat;lon;timestamp;P1;durP1;ratioP1;P2;durP2;ratioP2
19927;SDS011;10126;50.876;4.470;2022-10-16T00:01:17;0.20;;;0.20;;
19927;SDS011;10126;50.876;4.470;2022-10-16T00:03:20;0.33;;;0.20;;
19927;SDS011;10126;50.876;4.470;2022-10-16T00:05:20;0.20;;;0.20;;
19927;SDS011;10126;50.876;4.470;2022-10-16T00:07:21;0.20;;;0.20;;
19927;SDS011;10126;50.876;4.470;2022-10-16T00:09:22;0.20;;;0.20;;
19927;SDS011;10126;50.876;4.470;2022-10-16T00:11:24;0.20;;;0.20;;
19927;SDS011;10126;50.876;4.470;2022-10-16T00:13:26;0.20;;;0.20;;
19927;SDS011;10126;50.876;4.470;2022-10-16T00:15:27;0.20;;;0.20;;
19927;SDS011;10126;50.876;4.470;2022-10-16T00:17:29;0.20;;;0.20;;
19927;SDS011;10126;50.876;4.470;2022-10-16T00:19:29;0.20;;;0.20;;
19927;SDS011;10126;50.876;4.470;2022-10-16T00:21:31;0.20;;;0.20;;
19927;SDS011;10126;50.876;4.470;2022-10-16T00:23:32;0.10;;;0.10;;
19927;SDS011;10126;50.876;4.470;2022-10-16T00:25:33;0.20;;;0.20;;
19927;SDS011;10126;50.876;4.470;2022-10-16T00:27:34;0.30;;;0.30;;
19927;SDS011;10126;50.876;4.470;2022-10-16T00:29:34;0.20;;;0.20;;
19927;SDS011;10126;50.876;4.470;2022-10-16T00:31:35;0.20;;;0.20;;
19927;SDS011;10126;50.876;4.470;2022-10-16T00:33:37;0.13;;;0.13;;
19927;SDS011;10126;50.876;4.470;2022-10-16T00:35:39;0.20;;;0.20;;
19927;SDS011;10126;50.876;4.470;2022-10-16T00:37:39;0.20;;;0.20;;
19927;SDS011;10126;50.876;4.470;2022-10-16T00:39:40;0.20;;;0.20;;
19927;SDS011;10126;50.876;4.470;2022-10-16T00:41:40;0.20;;;0.20;;
19927;SDS011;10126;50.876;4.470;2022-10-16T00:45:52;0.20;;;0.20;;
19927;SDS011;10126;50.876;4.470;2022-10-16T00:47:54;0.30;;;0.30;;
19927;SDS011;10126;50.876;4.470;2022-10-16T00:52:15;0.20;;;0.20;;
19927;SDS011;10126;50.876;4.470;2022-10-16T00:56:20;0.20;;;0.20;;
19927;SDS011;10126;50.876;4.470;2022-10-16T00:58:20;0.20;;;0.20;;
19927;SDS011;10126;50.876;4.470;2022-10-16T01:00:22;0.10;;;0.10;;
19927;SDS011;10126;50.876;4.470;2022-10-16T01:02:25;0.20;;;0.20;;
19927;SDS011;10126;50.876;4.470;2022-10-16T01:04:34;0.20;;;0.20;;
19927;SDS011;10126;50.876;4.470;2022-10-16T01:06:51;0.20;;;0.20;;
19927;SDS011;10126;50.876;4.470;2022-10-16T01:11:41;0.20;;;0.20;;
19927;SDS011;10126;50.876;4.470;2022-10-16T01:13:54;0.20;;;0.20;;
19927;SDS011;10126;50.876;4.470;2022-10-16T01:16:00;0.20;;;0.20;;
19927;SDS011;10126;50.876;4.470;2022-10-16T01:20:16;0.20;;;0.20;;
19927;SDS011;10126;50.876;4.470;2022-10-16T01:22:30;0.20;;;0.20;;
19927;SDS011;10126;50.876;4.470;2022-10-16T01:24:54;0.20;;;0.20;;
19927;SDS011;10126;50.876;4.470;2022-10-16T01:31:29;0.20;;;0.20;;
19927;SDS011;10126;50.876;4.470;2022-10-16T01:33:43;0.20;;;0.20;;
19927;SDS011;10126;50.876;4.470;2022-10-16T01:35:58;0.20;;;0.20;;
19927;SDS011;10126;50.876;4.470;2022-10-16T01:38:14;0.10;;;0.10;;
19927;SDS011;10126;50.876;4.470;2022-10-16T01:40:24;0.20;;;0.20;;
19927;SDS011;10126;50.876;4.470;2022-10-16T01:42:28;0.20;;;0.20;;
19927;SDS011;10126;50.876;4.470;2022-10-16T01:44:35;0.20;;;0.20;;
19927;SDS011;10126;50.876;4.470;2022-10-16T01:46:40;0.20;;;0.20;;
19927;SDS011;10126;50.876;4.470;2022-10-16T01:48:42;0.20;;;0.20;;
19927;SDS011;10126;50.876;4.470;2022-10-16T01:50:44;0.20;;;0.20;;
19927;SDS011;10126;50.876;4.470;2022-10-16T01:52:55;0.20;;;0.20;;
19927;SDS011;10126;50.876;4.470;2022-10-16T01:54:57;0.20;;;0.20;;
19927;SDS011;10126;50.876;4.470;2022-10-16T01:57:00;0.20;;;0.20;;
19927;SDS011;10126;50.876;4.470;2022-10-16T01:59:07;0.20;;;0.20;;
19927;SDS011;10126;50.876;4.470;2022-10-16T02:01:11;0.20;;;0.20;;
19927;SDS011;10126;50.876;4.470;2022-10-16T02:03:16;0.20;;;0.20;;
19927;SDS011;10126;50.876;4.470;2022-10-16T02:05:24;0.20;;;0.20;;
19927;SDS011;10126;50.876;4.470;2022-10-16T02:07:37;0.20;;;0.20;;
19927;SDS011;10126;50.876;4.470;2022-10-16T02:09:38;0.10;;;0.10;;
19927;SDS011;10126;50.876;4.470;2022-10-16T02:11:39;0.20;;;0.20;;
19927;SDS011;10126;50.876;4.470;2022-10-16T02:13:57;0.20;;;0.20;;
19927;SDS011;10126;50.876;4.470;2022-10-16T02:16:01;0.20;;;0.20;;
19927;SDS011;10126;50.876;4.470;2022-10-16T02:18:03;0.20;;;0.20;;
19927;SDS011;10126;50.876;4.470;2022-10-16T02:20:05;0.13;;;0.13;;
19927;SDS011;10126;50.876;4.470;2022-10-16T02:22:06;0.20;;;0.20;;
19927;SDS011;10126;50.876;4.470;2022-10-16T02:26:21;0.20;;;0.20;;
19927;SDS011;10126;50.876;4.470;2022-10-16T02:28:54;0.27;;;0.27;;
19927;SDS011;10126;50.876;4.470;2022-10-16T02:31:01;0.20;;;0.20;;
19927;SDS011;10126;50.876;4.470;2022-10-16T02:33:05;0.20;;;0.20;;
19927;SDS011;10126;50.876;4.470;2022-10-16T02:35:09;0.10;;;0.10;;
19927;SDS011;10126;50.876;4.470;2022-10-16T02:37:11;0.20;;;0.20;;
19927;SDS011;10126;50.876;4.470;2022-10-16T02:39:12;0.20;;;0.20;;
19927;SDS011;10126;50.876;4.470;2022-10-16T02:41:13;0.20;;;0.20;;
19927;SDS011;10126;50.876;4.470;2022-10-16T02:43:15;0.20;;;0.20;;
19927;SDS011;10126;50.876;4.470;2022-10-16T02:45:16;0.20;;;0.20;;
19927;SDS011;10126;50.876;4.470;2022-10-16T02:47:18;0.20;;;0.20;;
19927;SDS011;10126;50.876;4.470;2022-10-16T02:49:18;0.20;;;0.20;;
19927;SDS011;10126;50.876;4.470;2022-10-16T02:51:19;0.20;;;0.20;;
19927;SDS011;10126;50.876;4.470;2022-10-16T02:53:19;0.20;;;0.20;;
19927;SDS011;10126;50.876;4.470;2022-10-16T02:55:20;0.10;;;0.10;;
19927;SDS011;10126;50.876;4.470;2022-10-16T02:57:21;0.20;;;0.20;;
19927;SDS011;10126;50.876;4.470;2022-10-16T02:59:21;0.20;;;0.20;;
19927;SDS011;10126;50.876;4.470;2022-10-16T03:01:22;0.20;;;0.20;;
19927;SDS011;10126;50.876;4.470;2022-10-16T03:03:23;0.20;;;0.20;;
19927;SDS011;10126;50.876;4.470;2022-10-16T03:05:24;0.20;;;0.20;;
19927;SDS011;10126;50.876;4.470;2022-10-16T03:07:25;0.20;;;0.20;;
19927;SDS011;10126;50.876;4.470;2022-10-16T03:09:25;0.20;;;0.20;;
19927;SDS011;10126;50.876;4.470;2022-10-16T03:11:26;0.47;;;0.30;;
19927;SDS011;10126;50.876;4.470;2022-10-16T03:13:28;0.20;;;0.20;;
19927;SDS011;10126;50.876;4.470;2022-10-16T03:15:28;0.20;;;0.20;;
19927;SDS011;10126;50.876;4.470;2022-10-16T03:17:29;0.20;;;0.20;;
19927;SDS011;10126;50.876;4.470;2022-10-16T03:19:30;0.20;;;0.20;;
19927;SDS011;10126;50.876;4.470;2022-10-16T03:21:30;0.23;;;0.23;;
19927;SDS011;10126;50.876;4.470;2022-10-16T03:23:31;0.20;;;0.20;;
19927;SDS011;10126;50.876;4.470;2022-10-16T03:25:32;0.20;;;0.20;;
19927;SDS011;10126;50.876;4.470;2022-10-16T03:27:32;0.20;;;0.20;;
19927;SDS011;10126;50.876;4.470;2022-10-16T03:29:33;0.20;;;0.20;;
19927;SDS011;10126;50.876;4.470;2022-10-16T03:31:33;0.20;;;0.20;;
19927;SDS011;10126;50.876;4.470;2022-10-16T03:33:34;0.20;;;0.20;;
19927;SDS011;10126;50.876;4.470;2022-10-16T03:35:35;0.20;;;0.20;;
19927;SDS011;10126;50.876;4.470;2022-10-16T03:37:35;0.20;;;0.20;;
19927;SDS011;10126;50.876;4.470;2022-10-16T03:39:36;0.20;;;0.20;;
19927;SDS011;10126;50.876;4.470;2022-10-16T03:41:37;0.30;;;0.30;;
19927;SDS011;10126;50.876;4.470;2022-10-16T03:43:37;0.20;;;0.20;;
19927;SDS011;10126;50.876;4.470;2022-10-16T03:45:38;0.20;;;0.20;;
19927;SDS011;10126;50.876;4.470;2022-10-16T03:47:39;0.20;;;0.20;;
19927;SDS011;10126;50.876;4.470;2022-10-16T03:49:41;0.20;;;0.20;;
19927;SDS011;10126;50.876;4.470;2022-10-16T03:51:41;0.20;;;0.20;;
19927;SDS011;10126;50.876;4.470;2022-10-16T03:53:42;0.20;;;0.20;;
19927;SDS011;10126;50.876;4.470;2022-10-16T03:55:43;0.20;;;0.20;;
19927;SDS011;10126;50.876;4.470;2022-10-16T03:57:44;0.17;;;0.17;;
19927;SDS011;10126;50.876;4.470;2022-10-16T03:59:45;0.20;;;0.20;;
19927;SDS011;10126;50.876;4.470;2022-10-16T04:01:45;0.20;;;0.20;;
19927;SDS011;10126;50.876;4.470;2022-10-16T04:03:46;0.20;;;0.20;;
19927;SDS011;10126;50.876;4.470;2022-10-16T04:05:46;0.20;;;0.20;;
19927;SDS011;10126;50.876;4.470;2022-10-16T04:07:47;0.20;;;0.20;;
19927;SDS011;10126;50.876;4.470;2022-10-16T04:09:48;0.20;;;0.20;;
19927;SDS011;10126;50.876;4.470;2022-10-16T04:11:48;0.20;;;0.20;;
19927;SDS011;10126;50.876;4.470;2022-10-16T04:13:49;0.30;;;0.30;;
19927;SDS011;10126;50.876;4.470;2022-10-16T04:15:50;0.20;;;0.20;;
19927;SDS011;10126;50.876;4.470;2022-10-16T04:17:51;0.20;;;0.20;;
19927;SDS011;10126;50.876;4.470;2022-10-16T04:19:52;0.20;;;0.20;;
19927;SDS011;10126;50.876;4.470;2022-10-16T04:21:52;0.20;;;0.20;;
19927;SDS011;10126;50.876;4.470;2022-10-16T04:23:53;0.20;;;0.20;;
19927;SDS011;10126;50.876;4.470;2022-10-16T04:25:53;0.20;;;0.20;;
19927;SDS011;10126;50.876;4.470;2022-10-16T04:27:54;0.10;;;0.10;;
19927;SDS011;10126;50.876;4.470;2022-10-16T04:29:55;0.20;;;0.20;;
19927;SDS011;10126;50.876;4.470;2022-10-16T04:31:56;0.20;;;0.20;;
19927;SDS011;10126;50.876;4.470;2022-10-16T04:33:57;0.20;;;0.20;;
19927;SDS011;10126;50.876;4.470;2022-10-16T04:35:58;0.27;;;0.27;;
19927;SDS011;10126;50.876;4.470;2022-10-16T04:38:00;0.20;;;0.20;;
19927;SDS011;10126;50.876;4.470;2022-10-16T04:40:00;0.20;;;0.20;;
19927;SDS011;10126;50.876;4.470;2022-10-16T04:42:01;0.20;;;0.20;;
19927;SDS011;10126;50.876;4.470;2022-10-16T04:44:02;0.10;;;0.10;;
19927;SDS011;10126;50.876;4.470;2022-10-16T04:46:03;0.20;;;0.20;;
19927;SDS011;10126;50.876;4.470;2022-10-16T04:48:04;0.20;;;0.20;;
19927;SDS011;10126;50.876;4.470;2022-10-16T04:50:05;0.20;;;0.20;;
19927;SDS011;10126;50.876;4.470;2022-10-16T04:52:06;0.20;;;0.20;;
19927;SDS011;10126;50.876;4.470;2022-10-16T04:54:06;0.10;;;0.10;;
19927;SDS011;10126;50.876;4.470;2022-10-16T04:56:08;0.20;;;0.20;;
19927;SDS011;10126;50.876;4.470;2022-10-16T04:58:08;0.20;;;0.20;;
19927;SDS011;10126;50.876;4.470;2022-10-16T05:00:10;0.20;;;0.20;;
19927;SDS011;10126;50.876;4.470;2022-10-16T05:02:11;0.20;;;0.20;;
19927;SDS011;10126;50.876;4.470;2022-10-16T05:04:11;0.20;;;0.20;;
19927;SDS011;10126;50.876;4.470;2022-10-16T05:06:12;0.20;;;0.20;;
19927;SDS011;10126;50.876;4.470;2022-10-16T05:08:13;0.20;;;0.20;;
19927;SDS011;10126;50.876;4.470;2022-10-16T05:10:15;0.20;;;0.20;;
19927;SDS011;10126;50.876;4.470;2022-10-16T05:12:16;0.20;;;0.20;;
19927;SDS011;10126;50.876;4.470;2022-10-16T05:14:17;0.20;;;0.20;;
19927;SDS011;10126;50.876;4.470;2022-10-16T05:16:18;0.20;;;0.20;;
19927;SDS011;10126;50.876;4.470;2022-10-16T05:18:18;0.20;;;0.20;;
19927;SDS011;10126;50.876;4.470;2022-10-16T05:20:19;0.20;;;0.20;;
19927;SDS011;10126;50.876;4.470;2022-10-16T05:22:19;0.20;;;0.20;;
19927;SDS011;10126;50.876;4.470;2022-10-16T05:24:21;0.20;;;0.20;;
19927;SDS011;10126;50.876;4.470;2022-10-16T05:26:21;0.20;;;0.20;;
19927;SDS011;10126;50.876;4.470;2022-10-16T05:28:22;0.20;;;0.20;;
19927;SDS011;10126;50.876;4.470;2022-10-16T05:30:23;0.20;;;0.20;;
19927;SDS011;10126;50.876;4.470;2022-10-16T05:32:24;0.20;;;0.20;;
19927;SDS011;10126;50.876;4.470;2022-10-16T05:34:25;0.10;;;0.10;;
19927;SDS011;10126;50.876;4.470;2022-10-16T05:36:25;0.20;;;0.20;;
19927;SDS011;10126;50.876;4.470;2022-10-16T05:38:26;0.20;;;0.20;;
19927;SDS011;10126;50.876;4.470;2022-10-16T05:40:27;0.20;;;0.20;;
19927;SDS011;10126;50.876;4.470;2022-10-16T05:42:27;0.20;;;0.20;;
19927;SDS011;10126;50.876;4.470;2022-10-16T05:44:28;0.20;;;0.20;;
19927;SDS011;10126;50.876;4.470;2022-10-16T05:46:29;0.10;;;0.10;;
19927;SDS011;10126;50.876;4.470;2022-10-16T05:48:30;0.20;;;0.20;;
19927;SDS011;10126;50.876;4.470;2022-10-16T05:50:31;0.20;;;0.20;;
19927;SDS011;10126;50.876;4.470;2022-10-16T05:52:32;0.17;;;0.17;;
19927;SDS011;10126;50.876;4.470;2022-10-16T05:54:32;0.20;;;0.20;;
19927;SDS011;10126;50.876;4.470;2022-10-16T05:56:33;0.20;;;0.20;;
19927;SDS011;10126;50.876;4.470;2022-10-16T05:58:36;0.20;;;0.20;;
19927;SDS011;10126;50.876;4.470;2022-10-16T06:00:37;0.20;;;0.20;;
19927;SDS011;10126;50.876;4.470;2022-10-16T06:02:38;0.10;;;0.10;;
19927;SDS011;10126;50.876;4.470;2022-10-16T06:04:38;0.10;;;0.10;;
19927;SDS011;10126;50.876;4.470;2022-10-16T06:06:39;0.20;;;0.20;;
19927;SDS011;10126;50.876;4.470;2022-10-16T06:08:40;0.20;;;0.20;;
19927;SDS011;10126;50.876;4.470;2022-10-16T06:10:42;0.20;;;0.20;;
19927;SDS011;10126;50.876;4.470;2022-10-16T06:12:43;0.20;;;0.20;;
19927;SDS011;10126;50.876;4.470;2022-10-16T06:14:44;0.10;;;0.10;;
19927;SDS011;10126;50.876;4.470;2022-10-16T06:16:46;0.20;;;0.20;;
19927;SDS011;10126;50.876;4.470;2022-10-16T06:18:47;0.20;;;0.20;;
19927;SDS011;10126;50.876;4.470;2022-10-16T06:20:48;0.17;;;0.17;;
19927;SDS011;10126;50.876;4.470;2022-10-16T06:22:48;0.20;;;0.20;;
19927;SDS011;10126;50.876;4.470;2022-10-16T06:24:49;0.20;;;0.20;;
19927;SDS011;10126;50.876;4.470;2022-10-16T06:26:50;0.20;;;0.20;;
19927;SDS011;10126;50.876;4.470;2022-10-16T06:28:50;0.20;;;0.20;;
19927;SDS011;10126;50.876;4.470;2022-10-16T06:30:58;0.20;;;0.20;;
19927;SDS011;10126;50.876;4.470;2022-10-16T06:32:59;0.20;;;0.20;;
19927;SDS011;10126;50.876;4.470;2022-10-16T06:35:00;0.20;;;0.20;;
19927;SDS011;10126;50.876;4.470;2022-10-16T06:37:00;0.10;;;0.10;;
19927;SDS011;10126;50.876;4.470;2022-10-16T06:39:01;0.20;;;0.20;;
19927;SDS011;10126;50.876;4.470;2022-10-16T06:41:03;0.20;;;0.20;;
19927;SDS011;10126;50.876;4.470;2022-10-16T06:43:05;0.20;;;0.20;;
19927;SDS011;10126;50.876;4.470;2022-10-16T06:45:05;0.23;;;0.23;;
19927;SDS011;10126;50.876;4.470;2022-10-16T06:47:06;0.20;;;0.20;;
19927;SDS011;10126;50.876;4.470;2022-10-16T06:49:07;0.20;;;0.20;;
19927;SDS011;10126;50.876;4.470;2022-10-16T06:51:09;0.20;;;0.20;;
19927;SDS011;10126;50.876;4.470;2022-10-16T06:53:11;0.20;;;0.20;;
19927;SDS011;10126;50.876;4.470;2022-10-16T06:55:11;0.20;;;0.20;;
19927;SDS011;10126;50.876;4.470;2022-10-16T06:57:12;0.10;;;0.10;;
19927;SDS011;10126;50.876;4.470;2022-10-16T06:59:13;0.20;;;0.20;;
19927;SDS011;10126;50.876;4.470;2022-10-16T07:01:14;0.20;;;0.20;;
19927;SDS011;10126;50.876;4.470;2022-10-16T07:03:16;0.10;;;0.10;;
19927;SDS011;10126;50.876;4.470;2022-10-16T07:05:16;0.10;;;0.10;;
19927;SDS011;10126;50.876;4.470;2022-10-16T07:07:18;0.10;;;0.10;;
19927;SDS011;10126;50.876;4.470;2022-10-16T07:09:18;0.20;;;0.20;;
19927;SDS011;10126;50.876;4.470;2022-10-16T07:11:20;0.10;;;0.10;;
19927;SDS011;10126;50.876;4.470;2022-10-16T07:13:22;0.20;;;0.20;;
19927;SDS011;10126;50.876;4.470;2022-10-16T07:15:22;0.20;;;0.20;;
19927;SDS011;10126;50.876;4.470;2022-10-16T07:17:24;0.10;;;0.10;;
19927;SDS011;10126;50.876;4.470;2022-10-16T07:19:25;0.10;;;0.10;;
19927;SDS011;10126;50.876;4.470;2022-10-16T07:21:26;0.10;;;0.10;;
19927;SDS011;10126;50.876;4.470;2022-10-16T07:23:28;0.10;;;0.10;;
19927;SDS011;10126;50.876;4.470;2022-10-16T07:25:29;0.10;;;0.10;;
19927;SDS011;10126;50.876;4.470;2022-10-16T07:27:30;0.10;;;0.10;;
19927;SDS011;10126;50.876;4.470;2022-10-16T07:29:30;0.10;;;0.10;;
19927;SDS011;10126;50.876;4.470;2022-10-16T07:31:31;0.10;;;0.10;;
19927;SDS011;10126;50.876;4.470;2022-10-16T07:33:33;0.10;;;0.10;;
19927;SDS011;10126;50.876;4.470;2022-10-16T07:35:35;0.10;;;0.10;;
19927;SDS011;10126;50.876;4.470;2022-10-16T07:37:35;0.10;;;0.10;;
19927;SDS011;10126;50.876;4.470;2022-10-16T07:39:36;0.10;;;0.10;;
19927;SDS011;10126;50.876;4.470;2022-10-16T07:41:37;0.10;;;0.10;;
19927;SDS011;10126;50.876;4.470;2022-10-16T07:43:37;0.10;;;0.10;;
19927;SDS011;10126;50.876;4.470;2022-10-16T07:45:45;0.10;;;0.10;;
19927;SDS011;10126;50.876;4.470;2022-10-16T07:47:49;0.10;;;0.10;;
19927;SDS011;10126;50.876;4.470;2022-10-16T07:49:50;0.10;;;0.10;;
19927;SDS011;10126;50.876;4.470;2022-10-16T07:51:51;0.03;;;0.03;;
19927;SDS011;10126;50.876;4.470;2022-10-16T07:53:51;0.10;;;0.10;;
19927;SDS011;10126;50.876;4.470;2022-10-16T07:55:56;0.10;;;0.10;;
19927;SDS011;10126;50.876;4.470;2022-10-16T07:57:58;0.17;;;0.17;;
19927;SDS011;10126;50.876;4.470;2022-10-16T07:59:59;0.10;;;0.10;;
19927;SDS011;10126;50.876;4.470;2022-10-16T08:01:59;0.10;;;0.10;;
19927;SDS011;10126;50.876;4.470;2022-10-16T08:04:00;0.10;;;0.10;;
19927;SDS011;10126;50.876;4.470;2022-10-16T08:06:01;0.10;;;0.10;;
19927;SDS011;10126;50.876;4.470;2022-10-16T08:08:02;0.10;;;0.10;;
19927;SDS011;10126;50.876;4.470;2022-10-16T08:10:03;0.10;;;0.10;;
19927;SDS011;10126;50.876;4.470;2022-10-16T08:12:04;0.10;;;0.10;;
19927;SDS011;10126;50.876;4.470;2022-10-16T08:14:05;0.10;;;0.10;;
19927;SDS011;10126;50.876;4.470;2022-10-16T08:16:05;0.10;;;0.10;;
19927;SDS011;10126;50.876;4.470;2022-10-16T08:18:08;0.10;;;0.10;;
19927;SDS011;10126;50.876;4.470;2022-10-16T08:20:10;0.10;;;0.10;;
19927;SDS011;10126;50.876;4.470;2022-10-16T08:22:11;0.10;;;0.10;;
19927;SDS011;10126;50.876;4.470;2022-10-16T08:24:12;0.10;;;0.10;;
19927;SDS011;10126;50.876;4.470;2022-10-16T08:26:12;0.20;;;0.20;;
19927;SDS011;10126;50.876;4.470;2022-10-16T08:28:13;0.10;;;0.10;;
19927;SDS011;10126;50.876;4.470;2022-10-16T08:30:14;0.10;;;0.10;;
19927;SDS011;10126;50.876;4.470;2022-10-16T08:32:16;0.20;;;0.20;;
19927;SDS011;10126;50.876;4.470;2022-10-16T08:34:16;0.20;;;0.20;;
19927;SDS011;10126;50.876;4.470;2022-10-16T08:36:17;0.10;;;0.10;;
19927;SDS011;10126;50.876;4.470;2022-10-16T08:38:18;0.10;;;0.10;;
19927;SDS011;10126;50.876;4.470;2022-10-16T08:40:19;0.17;;;0.17;;
19927;SDS011;10126;50.876;4.470;2022-10-16T08:42:41;0.20;;;0.20;;
19927;SDS011;10126;50.876;4.470;2022-10-16T08:47:24;0.10;;;0.10;;
19927;SDS011;10126;50.876;4.470;2022-10-16T08:49:55;0.10;;;0.10;;
19927;SDS011;10126;50.876;4.470;2022-10-16T08:51:59;0.10;;;0.10;;
19927;SDS011;10126;50.876;4.470;2022-10-16T08:54:04;0.20;;;0.20;;
19927;SDS011;10126;50.876;4.470;2022-10-16T08:56:10;0.10;;;0.10;;
19927;SDS011;10126;50.876;4.470;2022-10-16T08:58:14;0.10;;;0.10;;
19927;SDS011;10126;50.876;4.470;2022-10-16T09:00:16;0.10;;;0.10;;
19927;SDS011;10126;50.876;4.470;2022-10-16T09:02:28;0.20;;;0.20;;
19927;SDS011;10126;50.876;4.470;2022-10-16T09:07:06;0.20;;;0.20;;
19927;SDS011;10126;50.876;4.470;2022-10-16T09:09:38;0.17;;;0.17;;
19927;SDS011;10126;50.876;4.470;2022-10-16T09:12:04;0.10;;;0.10;;
19927;SDS011;10126;50.876;4.470;2022-10-16T09:18:35;0.10;;;0.10;;
19927;SDS011;10126;50.876;4.470;2022-10-16T09:20:53;0.10;;;0.10;;
19927;SDS011;10126;50.876;4.470;2022-10-16T09:23:16;0.20;;;0.20;;
19927;SDS011;10126;50.876;4.470;2022-10-16T09:25:27;0.10;;;0.10;;
19927;SDS011;10126;50.876;4.470;2022-10-16T09:27:28;0.10;;;0.10;;
19927;SDS011;10126;50.876;4.470;2022-10-16T09:29:30;0.20;;;0.20;;
19927;SDS011;10126;50.876;4.470;2022-10-16T09:31:30;0.20;;;0.20;;
19927;SDS011;10126;50.876;4.470;2022-10-16T09:33:35;0.10;;;0.10;;
19927;SDS011;10126;50.876;4.470;2022-10-16T09:35:44;0.20;;;0.20;;
19927;SDS011;10126;50.876;4.470;2022-10-16T09:37:48;0.20;;;0.20;;
19927;SDS011;10126;50.876;4.470;2022-10-16T09:39:54;0.10;;;0.10;;
19927;SDS011;10126;50.876;4.470;2022-10-16T09:41:55;0.10;;;0.10;;
19927;SDS011;10126;50.876;4.470;2022-10-16T09:43:57;0.10;;;0.10;;
19927;SDS011;10126;50.876;4.470;2022-10-16T09:46:02;0.20;;;0.20;;
19927;SDS011;10126;50.876;4.470;2022-10-16T09:48:11;0.10;;;0.10;;
19927;SDS011;10126;50.876;4.470;2022-10-16T09:50:19;0.10;;;0.10;;
19927;SDS011;10126;50.876;4.470;2022-10-16T09:52:26;0.20;;;0.10;;
19927;SDS011;10126;50.876;4.470;2022-10-16T09:54:27;0.10;;;0.10;;
19927;SDS011;10126;50.876;4.470;2022-10-16T09:58:30;0.20;;;0.20;;
19927;SDS011;10126;50.876;4.470;2022-10-16T10:00:32;0.10;;;0.10;;
19927;SDS011;10126;50.876;4.470;2022-10-16T10:02:34;0.20;;;0.20;;
19927;SDS011;10126;50.876;4.470;2022-10-16T10:04:48;0.10;;;0.10;;
19927;SDS011;10126;50.876;4.470;2022-10-16T10:06:52;0.10;;;0.10;;
19927;SDS011;10126;50.876;4.470;2022-10-16T10:08:58;0.10;;;0.10;;
19927;SDS011;10126;50.876;4.470;2022-10-16T10:11:02;0.10;;;0.10;;
19927;SDS011;10126;50.876;4.470;2022-10-16T10:13:04;0.10;;;0.10;;
19927;SDS011;10126;50.876;4.470;2022-10-16T10:15:21;0.10;;;0.10;;
19927;SDS011;10126;50.876;4.470;2022-10-16T10:17:24;0.10;;;0.10;;
19927;SDS011;10126;50.876;4.470;2022-10-16T10:19:27;0.10;;;0.10;;
19927;SDS011;10126;50.876;4.470;2022-10-16T10:21:27;0.10;;;0.10;;
19927;SDS011;10126;50.876;4.470;2022-10-16T10:23:29;0.10;;;0.10;;
19927;SDS011;10126;50.876;4.470;2022-10-16T10:35:25;0.13;;;0.13;;
19927;SDS011;10126;50.876;4.470;2022-10-16T10:37:37;0.10;;;0.10;;
19927;SDS011;10126;50.876;4.470;2022-10-16T10:39:49;0.10;;;0.10;;
19927;SDS011;10126;50.876;4.470;2022-10-16T10:42:36;0.10;;;0.10;;
19927;SDS011;10126;50.876;4.470;2022-10-16T10:44:55;0.10;;;0.10;;
19927;SDS011;10126;50.876;4.470;2022-10-16T10:47:19;0.10;;;0.10;;
19927;SDS011;10126;50.876;4.470;2022-10-16T11:00:03;0.00;;;0.00;;
19927;SDS011;10126;50.876;4.470;2022-10-16T11:07:04;0.10;;;0.10;;
19927;SDS011;10126;50.876;4.470;2022-10-16T11:16:00;0.10;;;0.10;;
19927;SDS011;10126;50.876;4.470;2022-10-16T11:18:08;0.10;;;0.10;;
19927;SDS011;10126;50.876;4.470;2022-10-16T11:20:29;0.10;;;0.10;;
19927;SDS011;10126;50.876;4.470;2022-10-16T11:22:44;0.10;;;0.10;;
19927;SDS011;10126;50.876;4.470;2022-10-16T11:26:59;0.10;;;0.10;;
19927;SDS011;10126;50.876;4.470;2022-10-16T11:29:10;0.10;;;0.10;;
19927;SDS011;10126;50.876;4.470;2022-10-16T11:33:57;0.10;;;0.10;;
19927;SDS011;10126;50.876;4.470;2022-10-16T11:36:04;0.10;;;0.10;;
19927;SDS011;10126;50.876;4.470;2022-10-16T11:38:15;0.10;;;0.10;;
19927;SDS011;10126;50.876;4.470;2022-10-16T11:40:32;0.10;;;0.10;;
19927;SDS011;10126;50.876;4.470;2022-10-16T11:42:37;0.10;;;0.10;;
19927;SDS011;10126;50.876;4.470;2022-10-16T11:44:48;0.10;;;0.10;;
19927;SDS011;10126;50.876;4.470;2022-10-16T11:47:30;0.10;;;0.10;;
19927;SDS011;10126;50.876;4.470;2022-10-16T11:49:34;0.10;;;0.10;;
19927;SDS011;10126;50.876;4.470;2022-10-16T11:51:43;0.10;;;0.10;;
19927;SDS011;10126;50.876;4.470;2022-10-16T11:53:53;0.10;;;0.10;;
19927;SDS011;10126;50.876;4.470;2022-10-16T11:55:57;0.03;;;0.03;;
19927;SDS011;10126;50.876;4.470;2022-10-16T11:57:59;0.10;;;0.10;;
19927;SDS011;10126;50.876;4.470;2022-10-16T12:00:31;0.10;;;0.10;;
19927;SDS011;10126;50.876;4.470;2022-10-16T12:02:55;0.10;;;0.10;;
19927;SDS011;10126;50.876;4.470;2022-10-16T12:07:46;0.10;;;0.10;;
19927;SDS011;10126;50.876;4.470;2022-10-16T12:09:53;0.10;;;0.10;;
19927;SDS011;10126;50.876;4.470;2022-10-16T12:11:56;0.10;;;0.10;;
19927;SDS011;10126;50.876;4.470;2022-10-16T12:18:20;0.10;;;0.10;;
19927;SDS011;10126;50.876;4.470;2022-10-16T12:22:28;0.10;;;0.10;;
19927;SDS011;10126;50.876;4.470;2022-10-16T12:24:32;0.10;;;0.10;;
19927;SDS011;10126;50.876;4.470;2022-10-16T12:26:37;0.10;;;0.10;;
19927;SDS011;10126;50.876;4.470;2022-10-16T12:28:41;0.10;;;0.10;;
19927;SDS011;10126;50.876;4.470;2022-10-16T12:30:42;0.10;;;0.10;;
19927;SDS011;10126;50.876;4.470;2022-10-16T12:32:56;0.10;;;0.10;;
19927;SDS011;10126;50.876;4.470;2022-10-16T12:34:59;0.10;;;0.10;;
19927;SDS011;10126;50.876;4.470;2022-10-16T12:37:36;0.10;;;0.10;;
19927;SDS011;10126;50.876;4.470;2022-10-16T12:39:33;0.10;;;0.10;;
19927;SDS011;10126;50.876;4.470;2022-10-16T12:41:35;0.10;;;0.10;;
19927;SDS011;10126;50.876;4.470;2022-10-16T12:43:40;0.10;;;0.10;;
19927;SDS011;10126;50.876;4.470;2022-10-16T12:45:42;0.10;;;0.10;;
19927;SDS011;10126;50.876;4.470;2022-10-16T12:47:48;0.10;;;0.10;;
19927;SDS011;10126;50.876;4.470;2022-10-16T12:49:52;0.10;;;0.10;;
19927;SDS011;10126;50.876;4.470;2022-10-16T12:51:54;0.10;;;0.10;;
19927;SDS011;10126;50.876;4.470;2022-10-16T12:56:23;0.10;;;0.10;;
19927;SDS011;10126;50.876;4.470;2022-10-16T13:00:44;0.10;;;0.10;;
19927;SDS011;10126;50.876;4.470;2022-10-16T13:05:35;0.10;;;0.10;;
19927;SDS011;10126;50.876;4.470;2022-10-16T13:08:09;0.00;;;0.00;;
19927;SDS011;10126;50.876;4.470;2022-10-16T13:23:44;0.10;;;0.10;;
19927;SDS011;10126;50.876;4.470;2022-10-16T13:28:03;0.10;;;0.10;;
19927;SDS011;10126;50.876;4.470;2022-10-16T13:30:10;0.10;;;0.10;;
19927;SDS011;10126;50.876;4.470;2022-10-16T13:32:17;0.10;;;0.10;;
19927;SDS011;10126;50.876;4.470;2022-10-16T13:34:20;0.10;;;0.10;;
19927;SDS011;10126;50.876;4.470;2022-10-16T13:36:24;0.10;;;0.10;;
19927;SDS011;10126;50.876;4.470;2022-10-16T13:38:33;0.00;;;0.00;;
19927;SDS011;10126;50.876;4.470;2022-10-16T13:40:35;0.10;;;0.10;;
19927;SDS011;10126;50.876;4.470;2022-10-16T13:42:35;0.10;;;0.10;;
19927;SDS011;10126;50.876;4.470;2022-10-16T13:44:39;0.10;;;0.10;;
19927;SDS011;10126;50.876;4.470;2022-10-16T13:46:43;0.10;;;0.10;;
19927;SDS011;10126;50.876;4.470;2022-10-16T13:48:44;0.10;;;0.10;;
19927;SDS011;10126;50.876;4.470;2022-10-16T13:53:18;0.10;;;0.10;;
19927;SDS011;10126;50.876;4.470;2022-10-16T13:55:19;0.10;;;0.10;;
19927;SDS011;10126;50.876;4.470;2022-10-16T13:57:21;0.10;;;0.10;;
19927;SDS011;10126;50.876;4.470;2022-10-16T14:01:24;0.03;;;0.03;;
19927;SDS011;10126;50.876;4.470;2022-10-16T14:03:29;0.10;;;0.10;;
19927;SDS011;10126;50.876;4.470;2022-10-16T14:05:30;0.10;;;0.10;;
19927;SDS011;10126;50.876;4.470;2022-10-16T14:07:32;0.10;;;0.10;;
19927;SDS011;10126;50.876;4.470;2022-10-16T14:09:34;0.10;;;0.10;;
19927;SDS011;10126;50.876;4.470;2022-10-16T14:11:38;0.10;;;0.10;;